createdAt,value
2018-07-27T00:00:19.339Z,11.17
2018-07-27T00:02:48.313Z,12.13
2018-07-27T00:05:18.447Z,7.07
2018-07-27T00:07:47.453Z,8.07
2018-07-27T00:10:17.727Z,7.00
2018-07-27T00:12:46.938Z,17.10
2018-07-27T00:15:15.928Z,7.67
2018-07-27T00:17:44.991Z,9.23
2018-07-27T00:20:22.858Z,14.07
2018-07-27T00:22:51.962Z,8.20
2018-07-27T00:25:20.954Z,12.10
2018-07-27T00:27:50.138Z,8.40
2018-07-27T00:30:19.410Z,9.00
2018-07-27T00:32:48.441Z,8.13
2018-07-27T00:35:17.609Z,11.40
2018-07-27T00:37:46.553Z,9.53
2018-07-27T00:40:15.695Z,8.80
2018-07-27T00:42:44.852Z,8.47
2018-07-27T00:45:13.819Z,9.37
2018-07-27T00:47:43.215Z,11.00
2018-07-27T00:50:12.286Z,13.30
2018-07-27T00:52:41.304Z,10.73
2018-07-27T00:55:10.457Z,9.93
2018-07-27T00:57:39.978Z,8.97
2018-07-27T01:00:09.152Z,10.00
2018-07-27T01:02:38.156Z,10.93
2018-07-27T01:05:07.083Z,9.43
2018-07-27T01:07:37.534Z,9.00
2018-07-27T01:10:06.753Z,6.80
2018-07-27T01:12:35.766Z,15.27
2018-07-27T01:15:05.864Z,8.87
2018-07-27T01:17:35.343Z,6.50
2018-07-27T01:20:05.632Z,12.50
2018-07-27T01:22:35.747Z,9.50
2018-07-27T01:25:04.834Z,12.77
2018-07-27T01:27:33.994Z,11.20
2018-07-27T01:30:03.237Z,10.50
2018-07-27T01:32:32.236Z,8.50
2018-07-27T01:35:01.373Z,7.23
2018-07-27T01:37:30.624Z,9.53
2018-07-27T01:39:59.689Z,12.87
2018-07-27T01:42:28.750Z,9.27
2018-07-27T01:44:57.900Z,9.50
2018-07-27T01:47:27.418Z,7.70
2018-07-27T01:49:56.531Z,7.80
2018-07-27T01:52:25.545Z,9.30
2018-07-27T01:54:54.602Z,8.40
2018-07-27T01:57:24.858Z,7.43
2018-07-27T01:59:53.956Z,10.27
2018-07-27T02:02:23.026Z,11.30
2018-07-27T02:04:52.380Z,11.63
2018-07-27T02:07:21.418Z,17.60
2018-07-27T02:09:50.298Z,10.50
2018-07-27T02:12:19.640Z,9.60
2018-07-27T02:14:48.656Z,8.80
2018-07-27T02:17:17.754Z,10.73
2018-07-27T02:19:46.884Z,7.40
2018-07-27T02:22:15.905Z,8.17
2018-07-27T02:24:44.999Z,7.17
2018-07-27T02:27:14.036Z,7.53
2018-07-27T02:29:43.076Z,9.43
2018-07-27T02:32:12.159Z,8.30
2018-07-27T02:34:41.462Z,7.87
2018-07-27T02:37:10.525Z,17.77
2018-07-27T02:39:39.570Z,12.33
2018-07-27T02:42:08.704Z,7.90
2018-07-27T02:44:37.868Z,11.03
2018-07-27T02:47:06.943Z,10.73
2018-07-27T02:49:36.284Z,18.17
2018-07-27T02:52:05.333Z,13.10
2018-07-27T02:54:34.178Z,9.53
2018-07-27T02:57:03.246Z,13.63
2018-07-27T02:59:32.707Z,11.17
2018-07-27T03:02:01.869Z,10.20
2018-07-27T03:04:31.025Z,7.43
2018-07-27T03:07:00.066Z,11.20
2018-07-27T03:09:29.177Z,8.50
2018-07-27T03:11:58.336Z,10.70
2018-07-27T03:14:27.753Z,9.90
2018-07-27T03:16:56.807Z,11.90
2018-07-27T03:19:25.881Z,15.33
2018-07-27T03:21:55.159Z,9.00
2018-07-27T03:24:24.329Z,10.67
2018-07-27T03:26:53.407Z,8.83
2018-07-27T03:29:22.489Z,11.00
2018-07-27T03:31:51.546Z,8.00
2018-07-27T03:34:20.820Z,7.00
2018-07-27T03:36:49.830Z,6.90
2018-07-27T03:39:18.878Z,14.03
2018-07-27T03:41:48.677Z,9.00
2018-07-27T03:44:17.852Z,16.30
2018-07-27T03:46:47.141Z,8.90
2018-07-27T03:49:16.249Z,12.30
2018-07-27T03:51:45.080Z,9.87
2018-07-27T03:54:14.155Z,14.23
2018-07-27T03:56:43.188Z,12.40
2018-07-27T03:59:12.350Z,11.63
2018-07-27T04:01:41.410Z,15.60
2018-07-27T04:04:10.433Z,9.13
2018-07-27T04:06:40.559Z,13.43
2018-07-27T04:09:10.421Z,10.70
2018-07-27T04:11:40.032Z,10.80
2018-07-27T04:14:09.633Z,17.63
2018-07-27T04:16:38.841Z,10.67
2018-07-27T04:19:07.882Z,12.17
2018-07-27T04:21:36.931Z,10.80
2018-07-27T04:24:06.007Z,15.83
2018-07-27T04:26:35.023Z,8.77
2018-07-27T04:29:04.915Z,17.83
2018-07-27T04:31:35.332Z,12.30
2018-07-27T04:34:04.519Z,15.70
2018-07-27T04:36:33.673Z,14.50
2018-07-27T04:39:03.147Z,10.33
2018-07-27T04:41:32.274Z,13.33
2018-07-27T04:44:01.519Z,21.87
2018-07-27T04:46:30.584Z,17.73
2018-07-27T04:48:59.783Z,10.13
2018-07-27T04:51:29.577Z,10.73
2018-07-27T04:53:58.617Z,10.20
2018-07-27T04:56:27.544Z,15.43
2018-07-27T04:58:56.424Z,18.03
2018-07-27T05:01:25.454Z,9.50
2018-07-27T05:03:54.495Z,11.00
2018-07-27T05:06:24.400Z,15.97
2018-07-27T05:08:58.723Z,11.90
2018-07-27T05:11:28.527Z,14.57
2018-07-27T05:13:57.676Z,10.93
2018-07-27T05:16:27.025Z,12.43
2018-07-27T05:18:56.031Z,12.07
2018-07-27T05:21:25.182Z,14.23
2018-07-27T05:23:54.344Z,16.20
2018-07-27T05:26:23.676Z,12.80
2018-07-27T05:28:52.950Z,12.13
2018-07-27T05:31:22.065Z,9.33
2018-07-27T05:33:51.158Z,16.30
2018-07-27T05:36:20.303Z,9.47
2018-07-27T05:38:49.163Z,10.67
2018-07-27T05:41:18.105Z,16.83
2018-07-27T05:43:47.354Z,15.27
2018-07-27T05:46:16.587Z,11.63
2018-07-27T05:48:45.820Z,16.40
2018-07-27T05:51:14.987Z,9.50
2018-07-27T05:53:45.165Z,13.20
2018-07-27T05:56:14.321Z,10.47
2018-07-27T05:58:43.583Z,12.10
2018-07-27T06:01:12.942Z,17.50
2018-07-27T06:03:43.102Z,15.93
2018-07-27T06:06:12.275Z,10.00
2018-07-27T06:08:41.392Z,14.17
2018-07-27T06:11:10.476Z,11.17
2018-07-27T06:13:39.485Z,14.47
2018-07-27T06:16:08.885Z,13.57
2018-07-27T06:18:38.060Z,11.10
2018-07-27T06:21:07.342Z,14.60
2018-07-27T06:23:36.750Z,13.40
2018-07-27T06:26:05.834Z,13.53
2018-07-27T06:28:35.054Z,9.60
2018-07-27T06:31:05.111Z,16.30
2018-07-27T06:33:34.318Z,11.00
2018-07-27T06:36:03.538Z,15.03
2018-07-27T06:38:32.554Z,11.73
2018-07-27T06:41:01.541Z,15.80
2018-07-27T06:43:31.490Z,16.80
2018-07-27T06:46:00.573Z,19.40
2018-07-27T06:48:29.767Z,10.20
2018-07-27T06:50:58.783Z,15.17
2018-07-27T06:53:27.785Z,10.47
2018-07-27T06:55:57.615Z,8.27
2018-07-27T06:58:26.421Z,14.17
2018-07-27T07:00:55.332Z,9.20
2018-07-27T07:03:24.460Z,10.43
2018-07-27T07:05:53.474Z,14.37
2018-07-27T07:08:22.550Z,9.30
2018-07-27T07:10:51.790Z,10.20
2018-07-27T07:13:21.198Z,10.63
2018-07-27T07:15:50.365Z,13.57
2018-07-27T07:18:19.497Z,12.63
2018-07-27T07:20:48.734Z,14.70
2018-07-27T07:23:17.763Z,11.27
2018-07-27T07:25:46.881Z,9.10
2018-07-27T07:28:15.817Z,13.40
2018-07-27T07:30:44.954Z,9.40
2018-07-27T07:33:14.434Z,12.80
2018-07-27T07:35:43.430Z,15.63
2018-07-27T07:38:12.426Z,14.23
2018-07-27T07:40:41.449Z,7.73
2018-07-27T07:43:10.545Z,9.87
2018-07-27T07:45:39.686Z,13.13
2018-07-27T07:48:08.840Z,13.27
2018-07-27T07:50:37.921Z,14.03
2018-07-27T07:53:06.685Z,10.13
2018-07-27T07:55:35.761Z,13.97
2018-07-27T07:58:04.923Z,9.83
2018-07-27T08:00:34.139Z,11.53
2018-07-27T08:03:03.148Z,8.97
2018-07-27T08:05:32.504Z,13.70
2018-07-27T08:08:01.554Z,10.70
2018-07-27T08:10:30.548Z,8.50
2018-07-27T08:12:59.580Z,16.83
2018-07-27T08:15:28.554Z,16.10
2018-07-27T08:17:57.321Z,11.67
2018-07-27T08:20:26.763Z,12.23
2018-07-27T08:22:55.775Z,12.33
2018-07-27T08:25:24.890Z,6.67
2018-07-27T08:28:05.472Z,8.67
2018-07-27T08:30:34.562Z,7.90
2018-07-27T08:33:03.542Z,8.20
2018-07-27T08:35:32.636Z,15.80
2018-07-27T08:38:02.081Z,14.90
2018-07-27T08:40:31.112Z,17.57
2018-07-27T08:43:00.121Z,10.63
2018-07-27T08:45:29.288Z,10.60
2018-07-27T08:47:58.412Z,8.47
2018-07-27T08:50:27.675Z,7.67
2018-07-27T08:52:58.134Z,16.03
2018-07-27T08:55:27.247Z,12.07
2018-07-27T08:57:56.425Z,6.47
2018-07-27T09:00:36.835Z,7.43
2018-07-27T09:03:06.300Z,14.80
2018-07-27T09:05:35.309Z,6.60
2018-07-27T09:08:04.100Z,9.93
2018-07-27T09:10:32.977Z,6.60
2018-07-27T09:13:02.057Z,5.57
2018-07-27T09:15:31.224Z,6.70
2018-07-27T09:18:00.263Z,8.70
2018-07-27T09:20:31.126Z,13.83
2018-07-27T09:23:00.140Z,7.97
2018-07-27T09:25:29.148Z,14.17
2018-07-27T09:27:58.280Z,7.13
2018-07-27T09:30:27.353Z,10.60
2018-07-27T09:32:56.405Z,8.07
2018-07-27T09:35:25.650Z,14.43
2018-07-27T09:37:54.703Z,18.33
2018-07-27T09:40:23.814Z,9.17
2018-07-27T09:42:52.819Z,7.17
2018-07-27T09:45:21.985Z,6.17
2018-07-27T09:47:51.200Z,9.40
2018-07-27T09:50:21.247Z,10.40
2018-07-27T09:52:50.322Z,8.33
2018-07-27T09:55:19.516Z,11.50
2018-07-27T09:57:48.654Z,22.53
2018-07-27T10:00:21.959Z,7.47
2018-07-27T10:02:50.965Z,13.60
2018-07-27T10:05:19.969Z,9.77
2018-07-27T10:07:49.122Z,6.80
2018-07-27T10:10:18.149Z,6.27
2018-07-27T10:12:47.270Z,10.47
2018-07-27T10:15:16.299Z,20.27
2018-07-27T10:17:45.325Z,8.13
2018-07-27T10:20:14.392Z,7.93
2018-07-27T10:22:43.594Z,11.43
2018-07-27T10:25:12.794Z,11.87
2018-07-27T10:27:41.824Z,9.60
2018-07-27T10:30:12.060Z,5.83
2018-07-27T10:32:41.103Z,6.40
2018-07-27T10:35:10.083Z,14.63
2018-07-27T10:37:39.159Z,10.10
2018-07-27T10:40:09.552Z,6.30
2018-07-27T10:42:38.755Z,6.50
2018-07-27T10:45:08.116Z,11.80
2018-07-27T10:47:37.407Z,4.80
2018-07-27T10:50:06.655Z,8.87
2018-07-27T10:52:35.852Z,7.13
2018-07-27T10:55:04.937Z,4.42
2018-07-27T10:57:33.936Z,6.80
2018-07-27T11:00:03.121Z,7.65
2018-07-27T11:02:32.164Z,4.87
2018-07-27T11:05:01.110Z,4.90
2018-07-27T11:07:30.165Z,4.90
2018-07-27T11:09:59.299Z,3.80
2018-07-27T11:12:28.401Z,5.00
2018-07-27T11:14:57.518Z,5.17
2018-07-27T11:17:26.559Z,4.67
2018-07-27T11:19:55.581Z,12.30
2018-07-27T11:22:24.670Z,4.27
2018-07-27T11:24:53.680Z,5.58
2018-07-27T11:27:23.038Z,4.60
2018-07-27T11:29:52.181Z,4.78
2018-07-27T11:32:21.197Z,6.87
2018-07-27T11:34:50.372Z,11.22
2018-07-27T11:37:19.395Z,7.40
2018-07-27T11:39:48.414Z,5.65
2018-07-27T11:42:17.570Z,5.33
2018-07-27T11:44:46.540Z,5.00
2018-07-27T11:47:15.666Z,5.37
2018-07-27T11:49:44.695Z,5.15
2018-07-27T11:52:13.814Z,4.97
2018-07-27T11:54:43.194Z,9.55
2018-07-27T11:57:12.193Z,7.12
2018-07-27T11:59:41.166Z,5.08
2018-07-27T12:02:09.925Z,5.03
2018-07-27T12:04:38.805Z,4.67
2018-07-27T12:07:07.881Z,10.78
2018-07-27T12:09:37.055Z,5.53
2018-07-27T12:12:06.117Z,3.80
2018-07-27T12:14:35.440Z,3.40
2018-07-27T12:17:04.221Z,6.42
2018-07-27T12:19:33.311Z,3.20
2018-07-27T12:22:02.714Z,3.75
2018-07-27T12:24:31.796Z,4.63
2018-07-27T12:27:00.861Z,3.75
2018-07-27T12:29:30.296Z,4.55
2018-07-27T12:31:59.979Z,4.77
2018-07-27T12:34:29.205Z,4.37
2018-07-27T12:36:58.553Z,6.92
2018-07-27T12:39:29.104Z,3.20
2018-07-27T12:41:58.230Z,6.90
2018-07-27T12:44:27.970Z,4.65
2018-07-27T12:46:57.315Z,8.20
2018-07-27T12:49:26.540Z,9.93
2018-07-27T12:51:56.119Z,5.05
2018-07-27T12:54:25.660Z,7.55
2018-07-27T12:56:54.915Z,3.72
2018-07-27T12:59:25.928Z,3.77
2018-07-27T13:01:55.044Z,4.10
2018-07-27T13:04:24.811Z,3.75
2018-07-27T13:06:53.838Z,4.87
2018-07-27T13:09:22.928Z,5.45
2018-07-27T13:11:52.030Z,4.95
2018-07-27T13:14:20.749Z,3.80
2018-07-27T13:16:49.661Z,5.37
2018-07-27T13:19:18.717Z,4.62
2018-07-27T13:21:47.797Z,3.20
2018-07-27T13:24:16.776Z,4.15
2018-07-27T13:26:45.790Z,6.75
2018-07-27T13:29:14.890Z,4.25
2018-07-27T13:31:45.514Z,7.45
2018-07-27T13:34:35.911Z,11.25
2018-07-27T13:37:05.225Z,8.53
2018-07-27T13:39:34.764Z,5.42
2018-07-27T13:42:04.896Z,4.12
2018-07-27T13:44:35.053Z,9.03
2018-07-27T13:47:04.897Z,9.13
2018-07-27T13:49:33.963Z,4.37
2018-07-27T13:52:03.055Z,7.55
2018-07-27T13:54:33.018Z,5.08
2018-07-27T13:57:02.482Z,3.85
2018-07-27T13:59:31.875Z,3.45
2018-07-27T14:02:01.100Z,4.53
2018-07-27T14:04:30.315Z,5.28
2018-07-27T14:07:00.770Z,4.12
2018-07-27T14:09:29.821Z,5.05
2018-07-27T14:11:58.912Z,3.45
2018-07-27T14:14:28.267Z,3.08
2018-07-27T14:16:57.375Z,2.95
2018-07-27T14:19:27.804Z,3.72
2018-07-27T14:21:56.942Z,4.05
2018-07-27T14:24:26.121Z,4.15
2018-07-27T14:26:55.268Z,5.55
2018-07-27T14:29:24.295Z,5.92
2018-07-27T14:31:53.368Z,2.67
2018-07-27T14:34:25.358Z,4.97
2018-07-27T14:36:54.556Z,2.85
2018-07-27T14:39:23.519Z,3.05
2018-07-27T14:41:52.256Z,4.95
2018-07-27T14:44:21.408Z,7.80
2018-07-27T14:46:50.388Z,4.17
2018-07-27T14:49:19.392Z,4.60
2018-07-27T14:51:48.722Z,6.28
2018-07-27T14:54:19.648Z,5.03
2018-07-27T14:56:48.866Z,3.83
2018-07-27T14:59:17.858Z,4.95
2018-07-27T15:01:47.026Z,3.47
2018-07-27T15:04:16.234Z,3.83
2018-07-27T15:06:45.231Z,4.72
2018-07-27T15:09:15.190Z,8.60
2018-07-27T15:11:44.986Z,3.47
2018-07-27T15:14:14.058Z,3.45
2018-07-27T15:16:43.034Z,2.80
2018-07-27T15:19:12.253Z,3.10
2018-07-27T15:21:41.275Z,5.70
2018-07-27T15:24:10.387Z,3.98
2018-07-27T15:26:39.535Z,2.85
2018-07-27T15:29:08.618Z,3.17
2018-07-27T15:31:37.650Z,2.60
2018-07-27T15:34:06.765Z,2.72
2018-07-27T15:36:36.027Z,8.38
2018-07-27T15:39:06.898Z,2.35
2018-07-27T15:41:36.430Z,9.10
2018-07-27T15:44:05.649Z,2.45
2018-07-27T15:46:34.863Z,3.62
2018-07-27T15:49:03.892Z,4.15
2018-07-27T15:51:33.046Z,4.22
2018-07-27T15:54:02.273Z,4.40
2018-07-27T15:56:31.474Z,5.33
2018-07-27T15:59:00.676Z,3.50
2018-07-27T16:01:29.794Z,3.53
2018-07-27T16:03:58.910Z,7.87
2018-07-27T16:06:28.116Z,5.60
2018-07-27T16:08:57.492Z,5.37
2018-07-27T16:11:28.770Z,4.15
2018-07-27T16:13:57.983Z,3.00
2018-07-27T16:16:27.124Z,3.98
2018-07-27T16:18:56.370Z,2.70
2018-07-27T16:21:25.659Z,3.10
2018-07-27T16:23:54.817Z,5.00
2018-07-27T16:26:24.222Z,7.30
2018-07-27T16:28:53.366Z,6.25
2018-07-27T16:31:22.509Z,3.08
2018-07-27T16:33:51.738Z,7.60
2018-07-27T16:36:23.894Z,3.95
2018-07-27T16:38:52.957Z,4.03
2018-07-27T16:41:22.127Z,3.00
2018-07-27T16:43:51.457Z,3.33
2018-07-27T16:46:20.454Z,3.27
2018-07-27T16:48:50.686Z,4.97
2018-07-27T16:51:19.810Z,3.00
2018-07-27T16:53:49.988Z,7.23
2018-07-27T16:56:18.730Z,5.23
2018-07-27T16:58:48.649Z,3.53
2018-07-27T17:01:17.905Z,3.67
2018-07-27T17:03:46.922Z,11.50
2018-07-27T17:06:15.976Z,4.00
2018-07-27T17:08:45.078Z,4.60
2018-07-27T17:11:14.215Z,4.00
2018-07-27T17:13:43.578Z,5.17
2018-07-27T17:16:12.595Z,6.43
2018-07-27T17:18:41.779Z,4.50
2018-07-27T17:21:10.818Z,8.50
2018-07-27T17:23:39.922Z,4.40
2018-07-27T17:26:08.924Z,4.80
2018-07-27T17:28:40.128Z,6.10
2018-07-27T17:31:09.420Z,3.40
2018-07-27T17:33:40.656Z,7.10
2018-07-27T17:36:09.665Z,6.40
2018-07-27T17:38:38.855Z,10.00
2018-07-27T17:41:08.162Z,3.57
2018-07-27T17:43:37.351Z,3.40
2018-07-27T17:46:06.894Z,5.67
2018-07-27T17:48:35.820Z,2.87
2018-07-27T17:51:04.833Z,4.97
2018-07-27T17:53:35.142Z,3.17
2018-07-27T17:56:04.418Z,4.63
2018-07-27T17:58:33.436Z,4.07
2018-07-27T18:01:02.770Z,3.90
2018-07-27T18:03:32.898Z,3.27
2018-07-27T18:06:02.169Z,5.20
2018-07-27T18:08:31.287Z,5.53
2018-07-27T18:11:00.466Z,3.93
2018-07-27T18:13:29.713Z,9.27
2018-07-27T18:15:58.813Z,3.07
2018-07-27T18:18:30.025Z,4.23
2018-07-27T18:20:59.008Z,3.30
2018-07-27T18:23:28.021Z,6.77
2018-07-27T18:25:57.286Z,6.67
2018-07-27T18:28:27.827Z,6.70
2018-07-27T18:30:56.891Z,7.23
2018-07-27T18:33:25.861Z,8.87
2018-07-27T18:35:55.513Z,5.67
2018-07-27T18:38:25.525Z,10.23
2018-07-27T18:40:55.733Z,5.90
2018-07-27T18:43:24.910Z,4.13
2018-07-27T18:45:54.159Z,4.33
2018-07-27T18:48:23.250Z,5.83
2018-07-27T18:50:52.297Z,4.50
2018-07-27T18:53:21.339Z,6.60
2018-07-27T18:55:50.088Z,5.77
2018-07-27T18:58:19.581Z,8.33
2018-07-27T19:00:49.633Z,4.53
2018-07-27T19:03:18.761Z,5.30
2018-07-27T19:05:48.951Z,6.23
2018-07-27T19:08:17.916Z,7.97
2018-07-27T19:10:46.921Z,5.10
2018-07-27T19:13:15.956Z,4.30
2018-07-27T19:15:45.104Z,5.90
2018-07-27T19:18:14.140Z,5.20
2018-07-27T19:20:43.221Z,7.37
2018-07-27T19:23:12.543Z,5.30
2018-07-27T19:25:41.888Z,7.73
2018-07-27T19:28:11.145Z,7.63
2018-07-27T19:30:40.251Z,7.63
2018-07-27T19:33:09.437Z,8.20
2018-07-27T19:35:38.686Z,7.63
2018-07-27T19:38:08.036Z,6.50
2018-07-27T19:40:37.422Z,8.00
2018-07-27T19:43:06.958Z,6.27
2018-07-27T19:45:37.458Z,13.90
2018-07-27T19:48:07.052Z,5.77
2018-07-27T19:50:36.764Z,7.40
2018-07-27T19:53:05.988Z,9.10
2018-07-27T19:55:35.193Z,8.90
2018-07-27T19:58:04.401Z,8.73
2018-07-27T20:00:33.671Z,8.13
2018-07-27T20:03:03.002Z,9.30
2018-07-27T20:05:33.102Z,7.50
2018-07-27T20:08:02.233Z,8.20
2018-07-27T20:10:31.470Z,6.63
2018-07-27T20:13:00.645Z,9.60
2018-07-27T20:15:29.719Z,14.00
2018-07-27T20:17:58.800Z,14.27
2018-07-27T20:20:27.814Z,10.80
2018-07-27T20:22:56.880Z,24.70
2018-07-27T20:25:25.983Z,15.10
2018-07-27T20:27:55.059Z,9.70
2018-07-27T20:30:24.134Z,13.23
2018-07-27T20:32:53.163Z,13.60
2018-07-27T20:35:22.193Z,16.93
2018-07-27T20:37:51.228Z,11.70
2018-07-27T20:40:21.991Z,11.13
2018-07-27T20:42:50.994Z,8.10
2018-07-27T20:45:22.839Z,11.60
2018-07-27T20:47:52.843Z,8.20
2018-07-27T20:50:21.862Z,10.90
2018-07-27T20:52:50.790Z,10.33
2018-07-27T20:55:19.745Z,8.60
2018-07-27T20:57:50.033Z,15.10
2018-07-27T21:00:19.213Z,11.87
2018-07-27T21:02:50.268Z,7.97
2018-07-27T21:05:19.244Z,11.73
2018-07-27T21:07:48.427Z,12.40
2018-07-27T21:10:17.418Z,12.53
2018-07-27T21:12:46.680Z,15.03
2018-07-27T21:15:15.688Z,11.73
2018-07-27T21:17:44.753Z,8.27
2018-07-27T21:20:13.855Z,11.23
2018-07-27T21:22:42.854Z,9.83
2018-07-27T21:25:11.911Z,8.13
2018-07-27T21:27:41.025Z,10.77
2018-07-27T21:30:10.076Z,9.50
2018-07-27T21:32:39.113Z,11.17
2018-07-27T21:35:08.241Z,10.83
2018-07-27T21:37:37.282Z,10.27
2018-07-27T21:40:06.638Z,14.30
2018-07-27T21:42:35.733Z,12.10
2018-07-27T21:45:05.274Z,12.60
2018-07-27T21:47:36.360Z,10.60
2018-07-27T21:50:07.023Z,12.20
2018-07-27T21:52:36.171Z,13.07
2018-07-27T21:55:05.395Z,12.03
2018-07-27T21:57:34.682Z,9.70
2018-07-27T22:00:05.121Z,9.40
2018-07-27T22:02:34.416Z,11.20
2018-07-27T22:05:03.621Z,20.03
2018-07-27T22:07:32.643Z,14.03
2018-07-27T22:10:01.675Z,13.00
2018-07-27T22:12:30.649Z,14.90
2018-07-27T22:14:59.665Z,11.80
2018-07-27T22:17:28.410Z,13.20
2018-07-27T22:20:00.366Z,13.00
2018-07-27T22:22:29.368Z,12.67
2018-07-27T22:24:58.459Z,16.83
2018-07-27T22:27:27.503Z,13.37
2018-07-27T22:29:56.835Z,12.90
2018-07-27T22:32:25.892Z,11.70
2018-07-27T22:34:54.666Z,16.20
2018-07-27T22:37:23.649Z,10.20
2018-07-27T22:39:53.780Z,12.80
2018-07-27T22:42:22.737Z,17.40
2018-07-27T22:44:51.764Z,10.93
2018-07-27T22:47:20.823Z,12.10
2018-07-27T22:49:55.936Z,10.23
2018-07-27T22:52:26.343Z,11.30
2018-07-27T22:54:55.381Z,11.40
2018-07-27T22:57:24.533Z,10.37
2018-07-27T22:59:53.546Z,12.17
2018-07-27T23:02:23.801Z,11.53
2018-07-27T23:04:53.960Z,13.43
2018-07-27T23:07:23.040Z,16.63
2018-07-27T23:09:52.098Z,12.97
2018-07-27T23:12:21.986Z,14.87
2018-07-27T23:14:51.016Z,20.23
2018-07-27T23:17:20.166Z,13.00
2018-07-27T23:19:49.221Z,11.03
2018-07-27T23:22:18.210Z,12.53
2018-07-27T23:24:47.234Z,14.57
2018-07-27T23:27:16.294Z,12.60
2018-07-27T23:29:45.397Z,14.03
2018-07-27T23:32:14.493Z,14.97
2018-07-27T23:34:43.530Z,21.93
2018-07-27T23:37:12.728Z,11.57
2018-07-27T23:39:41.788Z,18.13
2018-07-27T23:42:11.183Z,15.30
2018-07-27T23:44:40.266Z,15.57
2018-07-27T23:47:09.256Z,14.17
2018-07-27T23:49:38.457Z,13.87
2018-07-27T23:52:07.609Z,14.80
2018-07-27T23:54:36.614Z,14.73
2018-07-27T23:57:05.675Z,12.23
2018-07-27T23:59:34.682Z,15.23
